Tiverton, United Kingdom
Current Conditions -  °F | °C
As of 1:50 AM on Saturday 22 Nov 2014 (Local Time) from EGTE Reporting Station
Broken Clouds Broken Clouds  
Wind Chill: 55°   Ceiling: 1500
Heat Index: 55°   Visibility: 5mi
Dew Point: 55°   Wind: 15mph
Humidity: 100%   Direction: 170°S
Pressure: 29.8"   Gusts: NA
Location:  50.9°N, 3.48°W
Report Text: EGTE 220150Z 17013KT 8000 SCT004 BKN015 13/13 Q1009
Loading
Personal Weather Stations






























Interactive Weather Map New forecast layout! Learn more

10-Day Weather Forecast

Advertisements
Track Severe Weather on mobile